Aeroporto :
LOGIN :

Iscrizione | Disclaimer

   EN    FR    IT 

 










Sommario :    VFR   VFR Marginale   IFR   IFR Intensivo   IFR Molto Intensivo
Visibilità : 
Base nubi : 
>= 8 km
>= 3000ft
5 / 8 km
1000 / 3000 ft
1500m / 5 km
500 / 1000 ft
800 / 1500m
200 / 500 ft
< 800m
< 200 ft
Simboli :   Temporali  Nebbia  Neve Forte  Precipitazioni Forti  Vento > 20 kt
SIGMETs :   Varie  Temporali  Ghiacco  Turbolenza  Onda orograficha  Ceneri Vulcaniche






- Altitudine del aeroporto : 659 ft
- Codice IATA : LGG


EBLG - Liège

ULTIMO METAR :
  • 020820Z VRB02KT 3100 BR SCT005 BKN027 05/04 Q1018 TEMPO BKN003

METARs OBSOLETI :
  • 020750Z 06004KT 010V120 2600 BR FEW003 SCT005 BKN027 05/04 Q1018 TEMPO 0800 FG BKN002
  • 020720Z 03003KT 2100 BR BKN003 BKN005 05/04 Q1018 TEMPO 0800 FG BKN002
  • 020650Z 04004KT 2300 BR BKN003 BKN005 05/05 Q1018 TEMPO 0800 FG BKN002
  • 020620Z 04004KT 350V120 2500 BR BKN003 BKN004 05/04 Q1018 TEMPO 0800 FG BKN002
  • 020550Z 06005KT 020V110 2600 BR SCT003 BKN004 05/04 Q1018 TEMPO 0800 FG BKN002

TAF COR TAF EBLG
Valido dal 02 a 06 ore il 03 a 12 ore UTC


020617Z 0206/0312 03003KT 2500 BR SCT003 BKN005
TEMPO 0206/0215 BKN003
PROB40
TEMPO 0206/0210 0800 BCFG BKN001
BECMG 0211/0213 3500 BR BKN008
BECMG 0222/0224 6000 NSW SCT008 BKN012
PROB40
TEMPO 0302/0306 4800 -RA -SHRA SCT004 BKN007
TEMPO 0306/0309 4000 RA BKN008



MetMap, La meteo Aeronautica in un colpo d'occhio ! - Copyright ORBIFLY Dicembre 2007 - Disclaimer

ORBIFLY MET'MAP TEAM :

Programmazione e sviluppo : Alexandra Zaïnal
Concezione : Baudouin d'Aumeries
Aiuto per la programmazione : Marc-Olivier Méhu
Supporto tecnico e logistico : Manuel Goepfert
Aiuto per la traduzione : Arnaldo La Scala

Contatto : metmap@orbifly.com




FONTI E CREDITI :

   NOAA